Terminal Aerodrome Forecast
Issued by NWS

Home | Current Version | Previous Version | Text Only | Print | Product List | Glossary On
Versions: 1 2 3 4 5 6 7 8 9 10 11 12 13
409
FTPA31 PHFO 231120
TAFHTO
TAF
PHTO 231120Z 2312/2412 23006KT P6SM FEW025 SCT045 SCT200
     FM232100 04010KT P6SM SCT030 BKN050
     FM240600 24005KT P6SM VCSH SCT025 BKN045=

USA.gov is the U.S. government's official web portal to all federal, state and local government web resources and services.